sensor_id;sensor_type;location;lat;lon;timestamp;temperature;humidity
20574;DHT22;10445;50.216;7.912;2023-03-01T00:01:01;-2.50;38.00
20574;DHT22;10445;50.216;7.912;2023-03-01T00:03:50;-2.50;38.60
20574;DHT22;10445;50.216;7.912;2023-03-01T00:06:39;-2.50;38.80
20574;DHT22;10445;50.216;7.912;2023-03-01T00:09:27;-2.50;39.00
20574;DHT22;10445;50.216;7.912;2023-03-01T00:12:16;-2.60;39.10
20574;DHT22;10445;50.216;7.912;2023-03-01T00:15:07;-2.60;39.50
20574;DHT22;10445;50.216;7.912;2023-03-01T00:17:56;-2.60;39.50
20574;DHT22;10445;50.216;7.912;2023-03-01T00:20:50;-2.60;39.50
20574;DHT22;10445;50.216;7.912;2023-03-01T00:23:39;-2.60;40.30
20574;DHT22;10445;50.216;7.912;2023-03-01T00:26:28;-2.70;40.90
20574;DHT22;10445;50.216;7.912;2023-03-01T00:29:17;-2.70;41.40
20574;DHT22;10445;50.216;7.912;2023-03-01T00:32:07;-2.70;42.10
20574;DHT22;10445;50.216;7.912;2023-03-01T00:34:56;-2.70;42.70
20574;DHT22;10445;50.216;7.912;2023-03-01T00:37:44;-2.70;42.90
20574;DHT22;10445;50.216;7.912;2023-03-01T00:40:35;-2.70;43.70
20574;DHT22;10445;50.216;7.912;2023-03-01T00:43:23;-2.70;44.00
20574;DHT22;10445;50.216;7.912;2023-03-01T00:46:14;-2.70;44.30
20574;DHT22;10445;50.216;7.912;2023-03-01T00:49:04;-2.70;44.40
20574;DHT22;10445;50.216;7.912;2023-03-01T00:51:53;-2.70;44.50
20574;DHT22;10445;50.216;7.912;2023-03-01T00:54:42;-2.80;44.90
20574;DHT22;10445;50.216;7.912;2023-03-01T00:57:31;-2.80;44.90
20574;DHT22;10445;50.216;7.912;2023-03-01T01:00:21;-2.80;44.60
20574;DHT22;10445;50.216;7.912;2023-03-01T01:03:10;-2.80;44.80
20574;DHT22;10445;50.216;7.912;2023-03-01T01:06:00;-2.80;44.80
20574;DHT22;10445;50.216;7.912;2023-03-01T01:08:56;-2.80;44.80
20574;DHT22;10445;50.216;7.912;2023-03-01T01:11:46;-2.80;44.40
20574;DHT22;10445;50.216;7.912;2023-03-01T01:14:35;-2.80;44.30
20574;DHT22;10445;50.216;7.912;2023-03-01T01:17:24;-2.90;44.80
20574;DHT22;10445;50.216;7.912;2023-03-01T01:20:13;-2.90;44.80
20574;DHT22;10445;50.216;7.912;2023-03-01T01:23:05;-2.80;44.70
20574;DHT22;10445;50.216;7.912;2023-03-01T01:25:54;-2.90;45.20
20574;DHT22;10445;50.216;7.912;2023-03-01T01:28:42;-2.90;45.90
20574;DHT22;10445;50.216;7.912;2023-03-01T01:31:32;-2.90;46.40
20574;DHT22;10445;50.216;7.912;2023-03-01T01:34:21;-2.90;47.00
20574;DHT22;10445;50.216;7.912;2023-03-01T01:37:10;-2.80;46.50
20574;DHT22;10445;50.216;7.912;2023-03-01T01:40:01;-2.80;46.80
20574;DHT22;10445;50.216;7.912;2023-03-01T01:42:51;-2.80;46.90
20574;DHT22;10445;50.216;7.912;2023-03-01T01:45:41;-2.80;46.40
20574;DHT22;10445;50.216;7.912;2023-03-01T01:48:37;-2.80;46.00
20574;DHT22;10445;50.216;7.912;2023-03-01T01:51:31;-2.80;46.70
20574;DHT22;10445;50.216;7.912;2023-03-01T01:54:27;-2.80;46.40
20574;DHT22;10445;50.216;7.912;2023-03-01T01:57:22;-2.80;45.90
20574;DHT22;10445;50.216;7.912;2023-03-01T02:00:16;-2.80;45.90
20574;DHT22;10445;50.216;7.912;2023-03-01T02:03:08;-2.80;45.90
20574;DHT22;10445;50.216;7.912;2023-03-01T02:06:03;-2.80;45.80
20574;DHT22;10445;50.216;7.912;2023-03-01T02:08:52;-2.80;46.20
20574;DHT22;10445;50.216;7.912;2023-03-01T02:11:42;-2.80;46.70
20574;DHT22;10445;50.216;7.912;2023-03-01T02:14:33;-2.80;47.40
20574;DHT22;10445;50.216;7.912;2023-03-01T02:17:21;-2.80;47.40
20574;DHT22;10445;50.216;7.912;2023-03-01T02:20:16;-2.80;47.60
20574;DHT22;10445;50.216;7.912;2023-03-01T02:23:07;-2.80;47.50
20574;DHT22;10445;50.216;7.912;2023-03-01T02:26:00;-2.80;48.00
20574;DHT22;10445;50.216;7.912;2023-03-01T02:28:53;-2.80;48.10
20574;DHT22;10445;50.216;7.912;2023-03-01T02:31:42;-2.80;47.60
20574;DHT22;10445;50.216;7.912;2023-03-01T02:34:31;-2.80;47.90
20574;DHT22;10445;50.216;7.912;2023-03-01T02:37:21;-2.80;48.20
20574;DHT22;10445;50.216;7.912;2023-03-01T02:40:15;-2.80;48.40
20574;DHT22;10445;50.216;7.912;2023-03-01T02:43:08;-2.80;48.90
20574;DHT22;10445;50.216;7.912;2023-03-01T02:46:07;-2.80;49.00
20574;DHT22;10445;50.216;7.912;2023-03-01T02:48:57;-2.80;49.30
20574;DHT22;10445;50.216;7.912;2023-03-01T02:52:05;-2.80;49.20
20574;DHT22;10445;50.216;7.912;2023-03-01T02:54:59;-2.80;49.00
20574;DHT22;10445;50.216;7.912;2023-03-01T02:57:49;-2.80;48.70
20574;DHT22;10445;50.216;7.912;2023-03-01T03:00:40;-2.90;48.10
20574;DHT22;10445;50.216;7.912;2023-03-01T03:03:35;-2.90;48.10
20574;DHT22;10445;50.216;7.912;2023-03-01T03:06:24;-2.90;48.50
20574;DHT22;10445;50.216;7.912;2023-03-01T03:09:13;-2.90;48.70
20574;DHT22;10445;50.216;7.912;2023-03-01T03:12:03;-3.00;48.40
20574;DHT22;10445;50.216;7.912;2023-03-01T03:14:52;-3.00;49.00
20574;DHT22;10445;50.216;7.912;2023-03-01T03:17:41;-3.00;49.10
20574;DHT22;10445;50.216;7.912;2023-03-01T03:20:34;-3.00;49.30
20574;DHT22;10445;50.216;7.912;2023-03-01T03:23:23;-3.10;49.70
20574;DHT22;10445;50.216;7.912;2023-03-01T03:26:11;-3.10;50.00
20574;DHT22;10445;50.216;7.912;2023-03-01T03:29:02;-3.00;50.20
20574;DHT22;10445;50.216;7.912;2023-03-01T03:31:51;-3.10;50.40
20574;DHT22;10445;50.216;7.912;2023-03-01T03:34:39;-3.10;51.00
20574;DHT22;10445;50.216;7.912;2023-03-01T03:37:29;-3.20;51.50
20574;DHT22;10445;50.216;7.912;2023-03-01T03:40:48;-3.20;52.40
20574;DHT22;10445;50.216;7.912;2023-03-01T03:43:38;-3.20;52.40
20574;DHT22;10445;50.216;7.912;2023-03-01T03:46:27;-3.20;52.50
20574;DHT22;10445;50.216;7.912;2023-03-01T03:49:15;-3.30;53.30
20574;DHT22;10445;50.216;7.912;2023-03-01T03:52:04;-3.30;53.70
20574;DHT22;10445;50.216;7.912;2023-03-01T03:55:02;-3.20;53.70
20574;DHT22;10445;50.216;7.912;2023-03-01T03:57:50;-3.20;53.70
20574;DHT22;10445;50.216;7.912;2023-03-01T04:00:42;-3.30;53.20
20574;DHT22;10445;50.216;7.912;2023-03-01T04:03:32;-3.30;52.80
20574;DHT22;10445;50.216;7.912;2023-03-01T04:06:22;-3.30;52.80
20574;DHT22;10445;50.216;7.912;2023-03-01T04:09:11;-3.30;53.60
20574;DHT22;10445;50.216;7.912;2023-03-01T04:12:01;-3.40;53.80
20574;DHT22;10445;50.216;7.912;2023-03-01T04:14:49;-3.30;54.00
20574;DHT22;10445;50.216;7.912;2023-03-01T04:17:38;-3.40;54.70
20574;DHT22;10445;50.216;7.912;2023-03-01T04:20:30;-3.40;55.80
20574;DHT22;10445;50.216;7.912;2023-03-01T04:23:21;-3.50;56.10
20574;DHT22;10445;50.216;7.912;2023-03-01T04:26:09;-3.50;56.10
20574;DHT22;10445;50.216;7.912;2023-03-01T04:28:59;-3.50;56.30
20574;DHT22;10445;50.216;7.912;2023-03-01T04:31:48;-3.50;56.20
20574;DHT22;10445;50.216;7.912;2023-03-01T04:34:37;-3.60;57.20
20574;DHT22;10445;50.216;7.912;2023-03-01T04:37:26;-3.60;56.90
20574;DHT22;10445;50.216;7.912;2023-03-01T04:40:15;-3.60;57.70
20574;DHT22;10445;50.216;7.912;2023-03-01T04:43:04;-3.60;58.20
20574;DHT22;10445;50.216;7.912;2023-03-01T04:45:54;-3.60;59.20
20574;DHT22;10445;50.216;7.912;2023-03-01T04:48:50;-3.60;58.90
20574;DHT22;10445;50.216;7.912;2023-03-01T04:51:38;-3.60;59.20
20574;DHT22;10445;50.216;7.912;2023-03-01T04:54:27;-3.60;59.20
20574;DHT22;10445;50.216;7.912;2023-03-01T04:57:15;-3.60;59.20
20574;DHT22;10445;50.216;7.912;2023-03-01T05:00:05;-3.60;59.50
20574;DHT22;10445;50.216;7.912;2023-03-01T05:03:09;-3.60;60.10
20574;DHT22;10445;50.216;7.912;2023-03-01T05:05:58;-3.60;60.00
20574;DHT22;10445;50.216;7.912;2023-03-01T05:08:47;-3.60;59.70
20574;DHT22;10445;50.216;7.912;2023-03-01T05:11:36;-3.60;60.00
20574;DHT22;10445;50.216;7.912;2023-03-01T05:14:25;-3.70;60.10
20574;DHT22;10445;50.216;7.912;2023-03-01T05:17:13;-3.60;59.80
20574;DHT22;10445;50.216;7.912;2023-03-01T05:20:04;-3.70;60.00
20574;DHT22;10445;50.216;7.912;2023-03-01T05:22:57;-3.70;60.60
20574;DHT22;10445;50.216;7.912;2023-03-01T05:25:46;-3.70;60.50
20574;DHT22;10445;50.216;7.912;2023-03-01T05:28:36;-3.70;60.70
20574;DHT22;10445;50.216;7.912;2023-03-01T05:31:25;-3.70;61.10
20574;DHT22;10445;50.216;7.912;2023-03-01T05:34:13;-3.70;61.30
20574;DHT22;10445;50.216;7.912;2023-03-01T05:37:03;-3.70;61.40
20574;DHT22;10445;50.216;7.912;2023-03-01T05:39:54;-3.80;61.30
20574;DHT22;10445;50.216;7.912;2023-03-01T05:42:43;-3.80;61.10
20574;DHT22;10445;50.216;7.912;2023-03-01T05:45:33;-3.80;60.70
20574;DHT22;10445;50.216;7.912;2023-03-01T05:48:23;-3.80;60.50
20574;DHT22;10445;50.216;7.912;2023-03-01T05:51:12;-3.80;60.10
20574;DHT22;10445;50.216;7.912;2023-03-01T05:54:02;-3.80;59.70
20574;DHT22;10445;50.216;7.912;2023-03-01T05:56:53;-3.80;60.30
20574;DHT22;10445;50.216;7.912;2023-03-01T05:59:41;-3.90;60.60
20574;DHT22;10445;50.216;7.912;2023-03-01T06:02:30;-3.90;60.50
20574;DHT22;10445;50.216;7.912;2023-03-01T06:05:19;-3.90;60.40
20574;DHT22;10445;50.216;7.912;2023-03-01T06:08:09;-3.90;60.20
20574;DHT22;10445;50.216;7.912;2023-03-01T06:11:00;-4.00;60.70
20574;DHT22;10445;50.216;7.912;2023-03-01T06:13:48;-4.00;61.20
20574;DHT22;10445;50.216;7.912;2023-03-01T06:16:37;-3.90;61.20
20574;DHT22;10445;50.216;7.912;2023-03-01T06:19:25;-4.00;60.80
20574;DHT22;10445;50.216;7.912;2023-03-01T06:22:14;-4.00;60.30
20574;DHT22;10445;50.216;7.912;2023-03-01T06:25:03;-4.00;60.10
20574;DHT22;10445;50.216;7.912;2023-03-01T06:27:54;-4.00;60.20
20574;DHT22;10445;50.216;7.912;2023-03-01T06:30:43;-4.00;60.60
20574;DHT22;10445;50.216;7.912;2023-03-01T06:33:31;-4.00;60.70
20574;DHT22;10445;50.216;7.912;2023-03-01T06:36:20;-4.00;61.70
20574;DHT22;10445;50.216;7.912;2023-03-01T06:39:09;-4.00;61.70
20574;DHT22;10445;50.216;7.912;2023-03-01T06:41:58;-3.90;62.00
20574;DHT22;10445;50.216;7.912;2023-03-01T06:44:48;-3.90;61.60
20574;DHT22;10445;50.216;7.912;2023-03-01T06:47:37;-3.80;61.80
20574;DHT22;10445;50.216;7.912;2023-03-01T06:50:25;-3.80;61.50
20574;DHT22;10445;50.216;7.912;2023-03-01T06:53:14;-3.80;61.80
20574;DHT22;10445;50.216;7.912;2023-03-01T06:56:03;-3.60;62.40
20574;DHT22;10445;50.216;7.912;2023-03-01T06:58:52;-3.50;61.50
20574;DHT22;10445;50.216;7.912;2023-03-01T07:01:42;-3.30;60.70
20574;DHT22;10445;50.216;7.912;2023-03-01T07:04:31;-3.00;58.30
20574;DHT22;10445;50.216;7.912;2023-03-01T07:07:19;-2.70;54.50
20574;DHT22;10445;50.216;7.912;2023-03-01T07:10:09;-2.10;52.80
20574;DHT22;10445;50.216;7.912;2023-03-01T07:12:58;-1.50;45.30
20574;DHT22;10445;50.216;7.912;2023-03-01T07:15:47;-0.80;34.10
20574;DHT22;10445;50.216;7.912;2023-03-01T07:18:37;-0.40;28.00
20574;DHT22;10445;50.216;7.912;2023-03-01T07:21:25;0.00;21.00
20574;DHT22;10445;50.216;7.912;2023-03-01T07:24:14;0.30;18.50
20574;DHT22;10445;50.216;7.912;2023-03-01T07:27:03;0.90;14.90
20574;DHT22;10445;50.216;7.912;2023-03-01T07:29:51;1.00;12.30
20574;DHT22;10445;50.216;7.912;2023-03-01T07:32:40;0.70;12.10
20574;DHT22;10445;50.216;7.912;2023-03-01T07:35:30;0.50;13.00
20574;DHT22;10445;50.216;7.912;2023-03-01T07:38:20;0.60;17.40
20574;DHT22;10445;50.216;7.912;2023-03-01T07:41:09;1.20;14.20
20574;DHT22;10445;50.216;7.912;2023-03-01T07:43:57;2.10;8.30
20574;DHT22;10445;50.216;7.912;2023-03-01T07:46:46;2.60;1.00
20574;DHT22;10445;50.216;7.912;2023-03-01T07:49:35;2.70;1.00
20574;DHT22;10445;50.216;7.912;2023-03-01T07:52:25;2.50;1.00
20574;DHT22;10445;50.216;7.912;2023-03-01T07:55:14;2.00;1.00
20574;DHT22;10445;50.216;7.912;2023-03-01T07:58:03;1.10;4.40
20574;DHT22;10445;50.216;7.912;2023-03-01T08:00:52;0.50;10.10
20574;DHT22;10445;50.216;7.912;2023-03-01T08:03:41;0.20;14.10
20574;DHT22;10445;50.216;7.912;2023-03-01T08:06:30;0.20;18.30
20574;DHT22;10445;50.216;7.912;2023-03-01T08:09:21;0.30;17.70
20574;DHT22;10445;50.216;7.912;2023-03-01T08:12:09;0.50;17.70
20574;DHT22;10445;50.216;7.912;2023-03-01T08:14:58;0.80;18.10
20574;DHT22;10445;50.216;7.912;2023-03-01T08:17:49;1.10;14.40
20574;DHT22;10445;50.216;7.912;2023-03-01T08:20:38;1.50;12.00
20574;DHT22;10445;50.216;7.912;2023-03-01T08:23:27;1.40;8.90
20574;DHT22;10445;50.216;7.912;2023-03-01T08:26:20;1.30;8.70
20574;DHT22;10445;50.216;7.912;2023-03-01T08:29:08;1.30;8.70
20574;DHT22;10445;50.216;7.912;2023-03-01T08:31:57;1.30;10.60
20574;DHT22;10445;50.216;7.912;2023-03-01T08:34:47;1.20;9.10
20574;DHT22;10445;50.216;7.912;2023-03-01T08:37:35;1.10;11.10
20574;DHT22;10445;50.216;7.912;2023-03-01T08:40:24;1.40;11.80
20574;DHT22;10445;50.216;7.912;2023-03-01T08:43:17;1.40;8.60
20574;DHT22;10445;50.216;7.912;2023-03-01T08:46:09;1.40;6.00
20574;DHT22;10445;50.216;7.912;2023-03-01T08:48:58;1.30;6.80
20574;DHT22;10445;50.216;7.912;2023-03-01T08:51:47;1.30;8.50
20574;DHT22;10445;50.216;7.912;2023-03-01T08:54:36;1.30;6.30
20574;DHT22;10445;50.216;7.912;2023-03-01T08:57:25;1.50;9.20
20574;DHT22;10445;50.216;7.912;2023-03-01T09:00:17;1.70;7.00
20574;DHT22;10445;50.216;7.912;2023-03-01T09:03:05;2.30;7.50
20574;DHT22;10445;50.216;7.912;2023-03-01T09:06:00;3.20;1.00
20574;DHT22;10445;50.216;7.912;2023-03-01T09:08:50;3.50;1.00
20574;DHT22;10445;50.216;7.912;2023-03-01T09:11:38;3.80;1.00
20574;DHT22;10445;50.216;7.912;2023-03-01T09:14:27;4.30;1.00
20574;DHT22;10445;50.216;7.912;2023-03-01T09:17:17;4.40;1.00
20574;DHT22;10445;50.216;7.912;2023-03-01T09:20:10;4.10;1.00
20574;DHT22;10445;50.216;7.912;2023-03-01T09:22:58;3.70;1.00
20574;DHT22;10445;50.216;7.912;2023-03-01T09:25:47;3.60;1.00
20574;DHT22;10445;50.216;7.912;2023-03-01T09:28:41;3.70;1.00
20574;DHT22;10445;50.216;7.912;2023-03-01T09:31:32;3.80;1.00
20574;DHT22;10445;50.216;7.912;2023-03-01T09:34:22;3.90;1.00
20574;DHT22;10445;50.216;7.912;2023-03-01T09:37:11;3.60;1.00
20574;DHT22;10445;50.216;7.912;2023-03-01T09:40:03;3.50;1.00
20574;DHT22;10445;50.216;7.912;2023-03-01T09:42:57;3.10;1.00
20574;DHT22;10445;50.216;7.912;2023-03-01T09:45:48;3.00;1.00
20574;DHT22;10445;50.216;7.912;2023-03-01T09:48:42;3.20;1.00
20574;DHT22;10445;50.216;7.912;2023-03-01T09:51:34;3.10;1.00
20574;DHT22;10445;50.216;7.912;2023-03-01T09:54:23;3.30;1.00
20574;DHT22;10445;50.216;7.912;2023-03-01T09:57:19;3.80;1.00
20574;DHT22;10445;50.216;7.912;2023-03-01T10:00:29;4.30;1.00
20574;DHT22;10445;50.216;7.912;2023-03-01T10:03:24;4.80;1.00
20574;DHT22;10445;50.216;7.912;2023-03-01T10:06:18;5.40;1.00
20574;DHT22;10445;50.216;7.912;2023-03-01T10:09:22;5.40;1.00
20574;DHT22;10445;50.216;7.912;2023-03-01T10:12:13;6.10;1.00
20574;DHT22;10445;50.216;7.912;2023-03-01T10:15:06;6.80;1.00
20574;DHT22;10445;50.216;7.912;2023-03-01T10:18:01;7.40;1.00
20574;DHT22;10445;50.216;7.912;2023-03-01T10:20:57;7.30;1.00
20574;DHT22;10445;50.216;7.912;2023-03-01T10:23:47;7.00;1.00
20574;DHT22;10445;50.216;7.912;2023-03-01T10:26:47;6.90;1.00
20574;DHT22;10445;50.216;7.912;2023-03-01T10:29:44;7.20;1.00
20574;DHT22;10445;50.216;7.912;2023-03-01T10:32:36;7.10;1.00
20574;DHT22;10445;50.216;7.912;2023-03-01T10:35:27;6.70;1.00
20574;DHT22;10445;50.216;7.912;2023-03-01T10:38:17;5.80;1.00
20574;DHT22;10445;50.216;7.912;2023-03-01T10:41:07;5.00;1.00
20574;DHT22;10445;50.216;7.912;2023-03-01T10:43:58;4.60;1.00
20574;DHT22;10445;50.216;7.912;2023-03-01T10:46:59;4.50;1.00
20574;DHT22;10445;50.216;7.912;2023-03-01T10:49:54;4.50;1.00
20574;DHT22;10445;50.216;7.912;2023-03-01T10:52:57;4.10;1.00
20574;DHT22;10445;50.216;7.912;2023-03-01T10:55:57;4.00;1.00
20574;DHT22;10445;50.216;7.912;2023-03-01T10:59:02;3.80;1.00
20574;DHT22;10445;50.216;7.912;2023-03-01T11:02:29;3.70;1.00
20574;DHT22;10445;50.216;7.912;2023-03-01T11:05:26;3.60;1.00
20574;DHT22;10445;50.216;7.912;2023-03-01T11:08:30;3.80;1.00
20574;DHT22;10445;50.216;7.912;2023-03-01T11:11:41;3.60;1.00
20574;DHT22;10445;50.216;7.912;2023-03-01T11:19:20;4.00;1.00
20574;DHT22;10445;50.216;7.912;2023-03-01T11:22:13;4.10;1.00
20574;DHT22;10445;50.216;7.912;2023-03-01T11:25:03;4.00;1.00
20574;DHT22;10445;50.216;7.912;2023-03-01T11:27:57;3.90;1.00
20574;DHT22;10445;50.216;7.912;2023-03-01T11:30:51;4.00;1.00
20574;DHT22;10445;50.216;7.912;2023-03-01T11:33:56;4.40;1.00
20574;DHT22;10445;50.216;7.912;2023-03-01T11:36:54;5.10;1.00
20574;DHT22;10445;50.216;7.912;2023-03-01T11:39:49;5.00;1.00
20574;DHT22;10445;50.216;7.912;2023-03-01T11:42:50;5.00;1.00
20574;DHT22;10445;50.216;7.912;2023-03-01T11:45:51;5.20;1.00
20574;DHT22;10445;50.216;7.912;2023-03-01T11:48:51;5.30;1.00
20574;DHT22;10445;50.216;7.912;2023-03-01T11:51:47;5.20;1.00
20574;DHT22;10445;50.216;7.912;2023-03-01T11:54:50;5.30;1.00
20574;DHT22;10445;50.216;7.912;2023-03-01T11:57:59;5.50;1.00
20574;DHT22;10445;50.216;7.912;2023-03-01T12:01:11;5.20;1.00
20574;DHT22;10445;50.216;7.912;2023-03-01T12:07:27;4.70;1.00
20574;DHT22;10445;50.216;7.912;2023-03-01T12:10:28;4.80;1.00
20574;DHT22;10445;50.216;7.912;2023-03-01T12:13:38;4.70;1.00
20574;DHT22;10445;50.216;7.912;2023-03-01T12:16:47;5.10;1.00
20574;DHT22;10445;50.216;7.912;2023-03-01T12:20:23;6.20;1.00
20574;DHT22;10445;50.216;7.912;2023-03-01T12:34:46;8.20;1.00
20574;DHT22;10445;50.216;7.912;2023-03-01T12:37:47;8.00;1.00
20574;DHT22;10445;50.216;7.912;2023-03-01T12:40:51;7.70;1.00
20574;DHT22;10445;50.216;7.912;2023-03-01T12:43:58;7.40;1.00
20574;DHT22;10445;50.216;7.912;2023-03-01T12:46:58;7.10;1.00
20574;DHT22;10445;50.216;7.912;2023-03-01T12:49:55;7.00;1.00
20574;DHT22;10445;50.216;7.912;2023-03-01T12:52:49;7.50;1.00
20574;DHT22;10445;50.216;7.912;2023-03-01T12:55:42;7.40;1.00
20574;DHT22;10445;50.216;7.912;2023-03-01T12:58:34;7.30;1.00
20574;DHT22;10445;50.216;7.912;2023-03-01T13:01:42;7.30;1.00
20574;DHT22;10445;50.216;7.912;2023-03-01T13:04:43;7.10;1.00
20574;DHT22;10445;50.216;7.912;2023-03-01T13:07:37;6.80;1.00
20574;DHT22;10445;50.216;7.912;2023-03-01T13:10:32;6.60;1.00
20574;DHT22;10445;50.216;7.912;2023-03-01T13:13:23;6.40;1.00
20574;DHT22;10445;50.216;7.912;2023-03-01T13:16:40;6.20;1.00
20574;DHT22;10445;50.216;7.912;2023-03-01T13:26:03;6.00;1.00
20574;DHT22;10445;50.216;7.912;2023-03-01T13:28:57;6.50;1.00
20574;DHT22;10445;50.216;7.912;2023-03-01T13:31:58;6.80;1.00
20574;DHT22;10445;50.216;7.912;2023-03-01T13:34:58;6.60;1.00
20574;DHT22;10445;50.216;7.912;2023-03-01T13:37:47;7.30;1.00
20574;DHT22;10445;50.216;7.912;2023-03-01T13:41:02;7.60;1.00
20574;DHT22;10445;50.216;7.912;2023-03-01T13:43:51;8.00;1.00
20574;DHT22;10445;50.216;7.912;2023-03-01T13:46:40;7.80;1.00
20574;DHT22;10445;50.216;7.912;2023-03-01T13:49:41;7.90;1.00
20574;DHT22;10445;50.216;7.912;2023-03-01T13:52:37;8.60;1.00
20574;DHT22;10445;50.216;7.912;2023-03-01T13:55:36;9.50;1.00
20574;DHT22;10445;50.216;7.912;2023-03-01T13:58:27;10.20;1.00
20574;DHT22;10445;50.216;7.912;2023-03-01T14:01:28;10.20;1.00
20574;DHT22;10445;50.216;7.912;2023-03-01T14:04:21;9.30;1.00
20574;DHT22;10445;50.216;7.912;2023-03-01T14:07:17;7.70;1.00
20574;DHT22;10445;50.216;7.912;2023-03-01T14:10:22;6.80;1.00
20574;DHT22;10445;50.216;7.912;2023-03-01T14:19:35;6.60;1.00
20574;DHT22;10445;50.216;7.912;2023-03-01T14:22:36;5.90;1.00
20574;DHT22;10445;50.216;7.912;2023-03-01T14:25:27;4.90;1.00
20574;DHT22;10445;50.216;7.912;2023-03-01T14:28:19;4.50;1.00
20574;DHT22;10445;50.216;7.912;2023-03-01T14:31:35;4.30;1.00
20574;DHT22;10445;50.216;7.912;2023-03-01T14:34:43;4.10;1.00
20574;DHT22;10445;50.216;7.912;2023-03-01T14:38:00;4.10;1.00
20574;DHT22;10445;50.216;7.912;2023-03-01T14:49:05;3.90;1.00
20574;DHT22;10445;50.216;7.912;2023-03-01T14:51:59;4.00;1.00
20574;DHT22;10445;50.216;7.912;2023-03-01T14:54:53;3.90;1.00
20574;DHT22;10445;50.216;7.912;2023-03-01T14:57:51;3.90;1.00
20574;DHT22;10445;50.216;7.912;2023-03-01T15:01:17;3.90;1.00
20574;DHT22;10445;50.216;7.912;2023-03-01T15:08:44;3.90;1.00
20574;DHT22;10445;50.216;7.912;2023-03-01T15:12:49;3.90;1.00
20574;DHT22;10445;50.216;7.912;2023-03-01T15:20:04;3.90;1.00
20574;DHT22;10445;50.216;7.912;2023-03-01T15:31:43;3.80;1.00
20574;DHT22;10445;50.216;7.912;2023-03-01T15:34:32;3.80;1.00
20574;DHT22;10445;50.216;7.912;2023-03-01T15:37:40;3.80;1.00
20574;DHT22;10445;50.216;7.912;2023-03-01T15:40:32;3.80;1.00
20574;DHT22;10445;50.216;7.912;2023-03-01T15:43:41;3.80;1.00
20574;DHT22;10445;50.216;7.912;2023-03-01T15:46:33;3.80;1.00
20574;DHT22;10445;50.216;7.912;2023-03-01T15:49:35;3.80;1.00
20574;DHT22;10445;50.216;7.912;2023-03-01T15:52:41;3.80;1.00
20574;DHT22;10445;50.216;7.912;2023-03-01T15:55:32;3.70;1.00
20574;DHT22;10445;50.216;7.912;2023-03-01T15:58:25;3.70;1.00
20574;DHT22;10445;50.216;7.912;2023-03-01T16:01:14;3.70;1.00
20574;DHT22;10445;50.216;7.912;2023-03-01T16:04:05;3.70;1.00
20574;DHT22;10445;50.216;7.912;2023-03-01T16:06:55;3.60;1.00
20574;DHT22;10445;50.216;7.912;2023-03-01T16:09:44;3.60;1.00
20574;DHT22;10445;50.216;7.912;2023-03-01T16:12:32;3.60;1.00
20574;DHT22;10445;50.216;7.912;2023-03-01T16:15:23;3.50;1.00
20574;DHT22;10445;50.216;7.912;2023-03-01T16:18:12;3.50;1.00
20574;DHT22;10445;50.216;7.912;2023-03-01T16:21:01;3.50;1.00
20574;DHT22;10445;50.216;7.912;2023-03-01T16:23:52;3.40;1.00
20574;DHT22;10445;50.216;7.912;2023-03-01T16:26:42;3.40;1.00
20574;DHT22;10445;50.216;7.912;2023-03-01T16:29:32;3.30;1.00
20574;DHT22;10445;50.216;7.912;2023-03-01T16:32:21;3.30;1.00
20574;DHT22;10445;50.216;7.912;2023-03-01T16:35:11;3.20;1.00
20574;DHT22;10445;50.216;7.912;2023-03-01T16:38:00;3.20;1.00
20574;DHT22;10445;50.216;7.912;2023-03-01T16:40:51;3.10;1.00
20574;DHT22;10445;50.216;7.912;2023-03-01T16:43:40;3.00;1.00
20574;DHT22;10445;50.216;7.912;2023-03-01T16:46:29;3.00;1.00
20574;DHT22;10445;50.216;7.912;2023-03-01T16:49:18;3.00;1.00
20574;DHT22;10445;50.216;7.912;2023-03-01T16:52:07;3.00;1.00
20574;DHT22;10445;50.216;7.912;2023-03-01T16:54:56;2.90;1.00
20574;DHT22;10445;50.216;7.912;2023-03-01T16:57:46;2.80;1.00
20574;DHT22;10445;50.216;7.912;2023-03-01T17:00:35;2.80;1.00
20574;DHT22;10445;50.216;7.912;2023-03-01T17:03:25;2.70;1.00
20574;DHT22;10445;50.216;7.912;2023-03-01T17:06:16;2.70;1.00
20574;DHT22;10445;50.216;7.912;2023-03-01T17:09:07;2.60;1.00
20574;DHT22;10445;50.216;7.912;2023-03-01T17:11:56;2.50;1.00
20574;DHT22;10445;50.216;7.912;2023-03-01T17:14:46;2.50;1.00
20574;DHT22;10445;50.216;7.912;2023-03-01T17:17:37;2.40;1.00
20574;DHT22;10445;50.216;7.912;2023-03-01T17:20:25;2.40;1.00
20574;DHT22;10445;50.216;7.912;2023-03-01T17:23:14;2.30;1.00
20574;DHT22;10445;50.216;7.912;2023-03-01T17:26:03;2.30;1.00
20574;DHT22;10445;50.216;7.912;2023-03-01T17:28:51;2.30;1.00
20574;DHT22;10445;50.216;7.912;2023-03-01T17:31:41;2.20;1.00
20574;DHT22;10445;50.216;7.912;2023-03-01T17:34:31;2.20;1.00
20574;DHT22;10445;50.216;7.912;2023-03-01T17:37:21;2.20;1.00
20574;DHT22;10445;50.216;7.912;2023-03-01T17:40:11;2.10;1.00
20574;DHT22;10445;50.216;7.912;2023-03-01T17:43:00;2.10;1.00
20574;DHT22;10445;50.216;7.912;2023-03-01T17:45:49;2.00;1.00
20574;DHT22;10445;50.216;7.912;2023-03-01T17:48:40;2.00;1.00
20574;DHT22;10445;50.216;7.912;2023-03-01T17:51:28;2.00;1.00
20574;DHT22;10445;50.216;7.912;2023-03-01T17:54:17;1.90;1.00
20574;DHT22;10445;50.216;7.912;2023-03-01T17:57:06;1.80;1.00
20574;DHT22;10445;50.216;7.912;2023-03-01T17:59:55;1.80;1.00
20574;DHT22;10445;50.216;7.912;2023-03-01T18:02:43;1.80;1.00
20574;DHT22;10445;50.216;7.912;2023-03-01T18:05:35;1.80;1.00
20574;DHT22;10445;50.216;7.912;2023-03-01T18:08:24;1.80;1.00
20574;DHT22;10445;50.216;7.912;2023-03-01T18:11:13;1.80;1.00
20574;DHT22;10445;50.216;7.912;2023-03-01T18:14:03;1.80;1.00
20574;DHT22;10445;50.216;7.912;2023-03-01T18:16:51;1.80;1.00
20574;DHT22;10445;50.216;7.912;2023-03-01T18:19:40;1.80;1.00
20574;DHT22;10445;50.216;7.912;2023-03-01T18:22:32;1.70;1.00
20574;DHT22;10445;50.216;7.912;2023-03-01T18:25:20;1.60;1.00
20574;DHT22;10445;50.216;7.912;2023-03-01T18:28:13;1.60;1.00
20574;DHT22;10445;50.216;7.912;2023-03-01T18:31:05;1.50;1.00
20574;DHT22;10445;50.216;7.912;2023-03-01T18:33:55;1.50;1.00
20574;DHT22;10445;50.216;7.912;2023-03-01T18:36:43;1.50;1.00
20574;DHT22;10445;50.216;7.912;2023-03-01T18:39:53;1.40;1.00
20574;DHT22;10445;50.216;7.912;2023-03-01T18:42:42;1.40;1.00
20574;DHT22;10445;50.216;7.912;2023-03-01T18:45:31;1.40;1.00
20574;DHT22;10445;50.216;7.912;2023-03-01T18:48:19;1.40;1.00
20574;DHT22;10445;50.216;7.912;2023-03-01T18:51:13;1.40;1.00
20574;DHT22;10445;50.216;7.912;2023-03-01T18:54:03;1.40;1.00
20574;DHT22;10445;50.216;7.912;2023-03-01T18:56:53;1.40;1.00
20574;DHT22;10445;50.216;7.912;2023-03-01T18:59:41;1.30;1.00
20574;DHT22;10445;50.216;7.912;2023-03-01T19:02:30;1.30;1.00
20574;DHT22;10445;50.216;7.912;2023-03-01T19:05:19;1.20;1.00
20574;DHT22;10445;50.216;7.912;2023-03-01T19:08:07;1.30;1.00
20574;DHT22;10445;50.216;7.912;2023-03-01T19:10:57;1.30;1.00
20574;DHT22;10445;50.216;7.912;2023-03-01T19:13:48;1.30;1.00
20574;DHT22;10445;50.216;7.912;2023-03-01T19:16:38;1.20;1.00
20574;DHT22;10445;50.216;7.912;2023-03-01T19:19:26;1.20;1.00
20574;DHT22;10445;50.216;7.912;2023-03-01T19:22:15;1.20;1.00
20574;DHT22;10445;50.216;7.912;2023-03-01T19:25:04;1.20;1.00
20574;DHT22;10445;50.216;7.912;2023-03-01T19:27:53;1.20;1.00